createdAt,value
2022-12-09T00:01:29.202Z,1.90
2022-12-09T00:04:52.280Z,1.90
2022-12-09T00:08:16.990Z,1.90
2022-12-09T00:11:40.155Z,1.90
2022-12-09T00:15:03.136Z,1.80
2022-12-09T00:18:26.181Z,1.80
2022-12-09T00:21:49.249Z,1.80
2022-12-09T00:25:13.594Z,1.80
2022-12-09T00:28:36.560Z,1.80
2022-12-09T00:31:59.647Z,1.80
2022-12-09T00:35:22.926Z,1.80
2022-12-09T00:38:46.963Z,1.80
2022-12-09T00:42:11.307Z,1.70
2022-12-09T00:45:34.964Z,1.80
2022-12-09T00:48:58.147Z,1.70
2022-12-09T00:52:21.144Z,1.70
2022-12-09T00:55:45.268Z,1.70
2022-12-09T00:59:09.976Z,1.70
2022-12-09T01:02:33.259Z,1.70
2022-12-09T01:05:56.881Z,1.70
2022-12-09T01:09:20.228Z,1.60
2022-12-09T01:12:44.058Z,1.70
2022-12-09T01:16:17.548Z,1.60
2022-12-09T01:19:41.378Z,1.60
2022-12-09T01:23:04.596Z,1.60
2022-12-09T01:26:28.062Z,1.60
2022-12-09T01:29:51.169Z,1.60
2022-12-09T01:33:15.734Z,1.60
2022-12-09T01:36:38.985Z,1.60
2022-12-09T01:40:02.640Z,1.60
2022-12-09T01:43:25.747Z,1.50
2022-12-09T01:46:49.476Z,1.50
2022-12-09T01:50:13.861Z,1.50
2022-12-09T01:53:41.132Z,1.50
2022-12-09T01:57:04.831Z,1.50
2022-12-09T02:00:28.400Z,1.50
2022-12-09T02:03:54.737Z,1.50
2022-12-09T02:07:21.144Z,1.50
2022-12-09T02:10:53.602Z,1.50
2022-12-09T02:14:20.699Z,1.40
2022-12-09T02:17:53.391Z,1.40
2022-12-09T02:21:20.311Z,1.40
2022-12-09T02:24:56.226Z,1.40
2022-12-09T02:28:45.954Z,1.30
2022-12-09T02:32:37.770Z,1.30
2022-12-09T02:36:13.156Z,1.30
2022-12-09T02:39:40.959Z,1.30
2022-12-09T02:43:06.661Z,1.30
2022-12-09T02:46:31.675Z,1.30
2022-12-09T02:49:59.432Z,1.30
2022-12-09T02:53:27.147Z,1.30
2022-12-09T02:56:54.302Z,1.30
2022-12-09T03:00:18.516Z,1.30
2022-12-09T03:03:42.030Z,1.30
2022-12-09T03:07:25.999Z,1.30
2022-12-09T03:10:57.800Z,1.30
2022-12-09T03:14:26.673Z,1.30
2022-12-09T03:17:50.892Z,1.40
2022-12-09T03:21:16.724Z,1.40
2022-12-09T03:24:43.186Z,1.40
2022-12-09T03:28:10.604Z,1.30
2022-12-09T03:31:35.716Z,1.30
2022-12-09T03:35:04.552Z,1.30
2022-12-09T03:38:32.657Z,1.30
2022-12-09T03:41:59.078Z,1.20
2022-12-09T03:45:24.853Z,1.10
2022-12-09T03:48:48.126Z,1.10
2022-12-09T03:52:14.828Z,1.10
2022-12-09T03:55:45.954Z,1.20
2022-12-09T03:59:12.684Z,1.20
2022-12-09T04:02:37.681Z,1.30
2022-12-09T04:06:00.929Z,1.30
2022-12-09T04:09:24.213Z,1.30
2022-12-09T04:12:47.405Z,1.30
2022-12-09T04:16:10.866Z,1.40
2022-12-09T04:19:35.270Z,1.40
2022-12-09T04:22:58.603Z,1.40
2022-12-09T04:26:23.638Z,1.40
2022-12-09T04:29:47.044Z,1.40
2022-12-09T04:33:10.112Z,1.40
2022-12-09T04:36:34.828Z,1.40
2022-12-09T04:39:57.980Z,1.40
2022-12-09T04:43:21.128Z,1.40
2022-12-09T04:46:44.280Z,1.40
2022-12-09T04:50:09.170Z,1.40
2022-12-09T04:53:33.758Z,1.30
2022-12-09T04:56:57.030Z,1.40
2022-12-09T05:00:21.159Z,1.30
2022-12-09T05:03:44.515Z,1.30
2022-12-09T05:07:08.507Z,1.30
2022-12-09T05:10:33.312Z,1.30
2022-12-09T05:13:56.919Z,1.30
2022-12-09T05:17:24.018Z,1.30
2022-12-09T05:20:47.113Z,1.40
2022-12-09T05:24:33.392Z,1.30
2022-12-09T05:32:46.749Z,1.30
2022-12-09T05:36:18.943Z,1.30
2022-12-09T05:39:43.726Z,1.30
2022-12-09T05:43:06.762Z,1.30
2022-12-09T05:46:31.375Z,1.30
2022-12-09T05:49:54.894Z,1.30
2022-12-09T05:53:18.375Z,1.40
2022-12-09T05:56:46.343Z,1.40
2022-12-09T06:00:12.794Z,1.40
2022-12-09T06:03:38.518Z,1.30
2022-12-09T06:07:02.031Z,1.30
2022-12-09T06:10:26.346Z,1.30
2022-12-09T06:13:51.285Z,1.30
2022-12-09T06:17:14.370Z,1.30
2022-12-09T06:20:42.469Z,1.30
2022-12-09T06:24:06.856Z,1.30
2022-12-09T06:27:29.894Z,1.30
2022-12-09T06:30:52.999Z,1.30
2022-12-09T06:34:16.478Z,1.30
2022-12-09T06:37:41.146Z,1.30
2022-12-09T06:41:08.127Z,1.30
2022-12-09T06:44:31.385Z,1.30
2022-12-09T06:47:55.001Z,1.30
2022-12-09T06:51:18.538Z,1.30
2022-12-09T06:54:43.155Z,1.30
2022-12-09T06:58:06.559Z,1.30
2022-12-09T07:01:30.019Z,1.30
2022-12-09T07:04:54.364Z,1.30
2022-12-09T07:08:17.616Z,1.20
2022-12-09T07:11:43.312Z,1.10
2022-12-09T07:15:07.643Z,1.10
2022-12-09T07:18:30.902Z,1.20
2022-12-09T07:21:54.517Z,1.20
2022-12-09T07:25:18.120Z,1.10
2022-12-09T07:28:43.562Z,1.10
2022-12-09T07:32:07.195Z,1.10
2022-12-09T07:35:30.832Z,1.20
2022-12-09T07:38:56.554Z,1.20
2022-12-09T07:42:19.807Z,1.10
2022-12-09T07:45:51.393Z,1.20
2022-12-09T07:49:15.052Z,1.00
2022-12-09T07:52:38.424Z,0.90
2022-12-09T07:56:03.540Z,0.70
2022-12-09T07:59:27.173Z,0.50
2022-12-09T08:02:53.827Z,0.30
2022-12-09T08:06:19.772Z,0.20
2022-12-09T08:09:43.857Z,0.00
2022-12-09T08:13:07.367Z,-0.10
2022-12-09T08:16:30.681Z,-0.20
2022-12-09T08:19:56.457Z,-0.20
2022-12-09T08:23:20.018Z,-0.10
2022-12-09T08:26:43.907Z,0.00
2022-12-09T08:30:09.199Z,0.00
2022-12-09T08:33:35.843Z,0.20
2022-12-09T08:37:02.472Z,0.50
2022-12-09T08:40:26.234Z,0.70
2022-12-09T08:43:50.643Z,0.80
2022-12-09T08:47:14.757Z,0.90
2022-12-09T08:50:38.184Z,1.10
2022-12-09T08:54:03.365Z,1.30
2022-12-09T08:57:28.745Z,1.40
2022-12-09T09:00:52.626Z,1.50
2022-12-09T09:04:19.412Z,1.70
2022-12-09T09:07:43.009Z,1.80
2022-12-09T09:11:12.335Z,1.90
2022-12-09T09:14:36.378Z,2.00
2022-12-09T09:17:59.796Z,2.20
2022-12-09T09:21:26.867Z,2.20
2022-12-09T09:24:52.389Z,2.30
2022-12-09T09:28:16.960Z,2.40
2022-12-09T09:31:40.200Z,2.40
2022-12-09T09:35:04.306Z,2.40
2022-12-09T09:38:31.931Z,2.50
2022-12-09T09:41:57.182Z,2.60
2022-12-09T09:45:24.903Z,2.60
2022-12-09T09:48:49.782Z,2.60
2022-12-09T09:52:18.359Z,2.70
2022-12-09T09:55:46.101Z,2.80
2022-12-09T09:59:20.466Z,2.80
2022-12-09T10:02:59.568Z,2.90
2022-12-09T10:06:34.007Z,3.00
2022-12-09T10:10:07.137Z,3.10
2022-12-09T10:13:45.116Z,3.00
2022-12-09T10:17:22.688Z,2.90
2022-12-09T10:20:48.833Z,3.00
2022-12-09T10:24:30.916Z,3.00
2022-12-09T10:28:03.120Z,3.10
2022-12-09T10:31:28.956Z,3.20
2022-12-09T10:34:52.489Z,3.30
2022-12-09T10:38:20.253Z,3.40
2022-12-09T10:42:06.220Z,3.40
2022-12-09T10:45:52.519Z,3.40
2022-12-09T10:49:20.175Z,3.50
2022-12-09T10:52:46.233Z,3.50
2022-12-09T10:56:11.054Z,3.60
2022-12-09T10:59:35.468Z,3.60
2022-12-09T11:02:59.028Z,3.70
2022-12-09T11:06:26.405Z,3.80
2022-12-09T11:09:52.526Z,3.80
2022-12-09T11:13:20.269Z,3.70
2022-12-09T11:16:46.756Z,3.80
2022-12-09T11:20:25.410Z,3.90
2022-12-09T11:24:02.543Z,4.00
2022-12-09T11:27:32.052Z,4.00
2022-12-09T11:31:27.616Z,4.10
2022-12-09T11:34:47.794Z,4.30
2022-12-09T11:38:22.900Z,4.70
2022-12-09T11:42:12.957Z,5.20
2022-12-09T11:45:41.902Z,5.60
2022-12-09T11:49:13.728Z,6.70
2022-12-09T11:52:36.761Z,7.30
2022-12-09T11:56:04.694Z,9.20
2022-12-09T11:59:37.877Z,9.80
2022-12-09T12:03:05.515Z,10.10
2022-12-09T12:06:43.742Z,10.80
2022-12-09T12:10:15.932Z,11.60
2022-12-09T12:13:43.078Z,11.40
2022-12-09T12:17:20.749Z,11.80
2022-12-09T12:21:00.685Z,11.00
2022-12-09T12:24:50.123Z,10.00
2022-12-09T12:28:35.815Z,9.40
2022-12-09T12:32:13.736Z,10.20
2022-12-09T12:35:49.331Z,9.60
2022-12-09T12:39:22.450Z,8.70
2022-12-09T12:43:18.985Z,8.40
2022-12-09T12:46:54.383Z,8.50
2022-12-09T12:50:57.715Z,10.50
2022-12-09T12:55:12.727Z,12.00
2022-12-09T12:58:46.889Z,12.20
2022-12-09T13:02:24.490Z,13.40
2022-12-09T13:05:51.639Z,14.20
2022-12-09T13:09:20.901Z,13.80
2022-12-09T13:12:56.589Z,13.10
2022-12-09T13:16:28.561Z,13.40
2022-12-09T13:19:53.524Z,13.80
2022-12-09T13:23:40.840Z,14.20
2022-12-09T13:27:09.473Z,14.50
2022-12-09T13:30:37.289Z,14.20
2022-12-09T13:34:15.608Z,13.50
2022-12-09T13:37:59.147Z,13.20
2022-12-09T13:41:59.761Z,12.60
2022-12-09T13:45:29.076Z,12.40
2022-12-09T13:48:52.769Z,12.60
2022-12-09T13:52:42.335Z,12.00
2022-12-09T13:56:08.615Z,10.40
2022-12-09T13:59:41.663Z,9.40
2022-12-09T14:03:21.747Z,8.40
2022-12-09T14:06:55.689Z,7.80
2022-12-09T14:10:39.561Z,7.30
2022-12-09T14:14:48.522Z,6.90
2022-12-09T14:18:32.992Z,6.40
2022-12-09T14:22:29.466Z,6.10
2022-12-09T14:26:05.774Z,5.70
2022-12-09T14:29:48.045Z,5.40
2022-12-09T14:33:23.011Z,5.00
2022-12-09T14:36:54.718Z,4.50
2022-12-09T14:40:39.612Z,4.20
2022-12-09T14:44:15.806Z,3.80
2022-12-09T14:47:45.681Z,3.50
2022-12-09T14:51:17.543Z,3.30
2022-12-09T14:54:47.196Z,3.10
2022-12-09T14:58:18.850Z,3.00
2022-12-09T15:01:52.396Z,2.90
2022-12-09T15:05:18.580Z,2.70
2022-12-09T15:08:42.886Z,2.50
2022-12-09T15:12:10.329Z,2.30
2022-12-09T15:15:39.282Z,2.20
2022-12-09T15:19:03.713Z,2.10
2022-12-09T15:22:31.025Z,1.90
2022-12-09T15:25:56.113Z,1.80
2022-12-09T15:29:21.506Z,1.60
2022-12-09T15:32:46.176Z,1.30
2022-12-09T15:36:15.010Z,1.10
2022-12-09T15:39:43.558Z,1.00
2022-12-09T15:43:10.328Z,0.90
2022-12-09T15:46:37.043Z,0.80
2022-12-09T15:50:12.017Z,0.70
2022-12-09T15:53:42.458Z,0.70
2022-12-09T15:57:10.000Z,0.60
2022-12-09T16:00:33.468Z,0.60
2022-12-09T16:03:58.679Z,0.60
2022-12-09T16:07:23.527Z,0.50
2022-12-09T16:10:49.987Z,0.40
2022-12-09T16:14:13.885Z,0.40
2022-12-09T16:17:51.338Z,0.30
2022-12-09T16:21:28.563Z,0.40
2022-12-09T16:28:37.757Z,0.70
2022-12-09T16:32:30.306Z,0.80
2022-12-09T16:35:59.522Z,0.90
2022-12-09T16:39:43.536Z,0.90
2022-12-09T16:43:21.490Z,0.80
2022-12-09T16:46:45.855Z,0.60
2022-12-09T16:50:10.125Z,0.60
2022-12-09T16:53:39.396Z,0.50
2022-12-09T16:57:02.365Z,0.50
2022-12-09T17:00:26.149Z,0.40
2022-12-09T17:03:54.597Z,0.30
2022-12-09T17:07:17.557Z,0.10
2022-12-09T17:10:41.101Z,-0.10
2022-12-09T17:14:04.318Z,-0.30
2022-12-09T17:17:27.302Z,-0.50
2022-12-09T17:20:51.694Z,-0.70
2022-12-09T17:24:14.739Z,-0.80
2022-12-09T17:27:37.750Z,-0.90
2022-12-09T17:31:00.794Z,-0.90
2022-12-09T17:34:23.708Z,-1.00
2022-12-09T17:37:48.212Z,-1.00
2022-12-09T17:41:13.206Z,-1.10
2022-12-09T17:44:36.237Z,-1.20
2022-12-09T17:47:59.190Z,-1.30
2022-12-09T17:51:22.145Z,-1.40
2022-12-09T17:54:47.697Z,-1.50
2022-12-09T17:58:10.656Z,-1.60
2022-12-09T18:01:36.077Z,-1.60
2022-12-09T18:04:59.134Z,-1.60
2022-12-09T18:08:22.156Z,-1.40
2022-12-09T18:11:47.675Z,-1.10
2022-12-09T18:15:11.683Z,-0.90
2022-12-09T18:18:34.642Z,-0.70
2022-12-09T18:21:57.957Z,-0.50
2022-12-09T18:25:20.958Z,-0.30
2022-12-09T18:28:45.559Z,0.00
2022-12-09T18:32:09.217Z,0.20
2022-12-09T18:35:32.206Z,0.30
2022-12-09T18:38:57.788Z,0.30
2022-12-09T18:42:20.826Z,0.30
2022-12-09T18:45:45.207Z,0.20
2022-12-09T18:49:11.416Z,0.20
2022-12-09T18:52:34.435Z,0.30
2022-12-09T18:55:57.473Z,0.30
2022-12-09T18:59:23.316Z,0.30
2022-12-09T19:02:47.718Z,0.40
2022-12-09T19:06:20.147Z,0.50
2022-12-09T19:09:43.467Z,0.60
2022-12-09T19:13:06.775Z,0.70
2022-12-09T19:16:30.734Z,0.70
2022-12-09T19:19:55.522Z,0.70
2022-12-09T19:23:18.780Z,0.60
2022-12-09T19:26:42.996Z,0.70
2022-12-09T19:30:07.911Z,0.70
2022-12-09T19:33:31.060Z,0.80
2022-12-09T19:36:57.446Z,0.70
2022-12-09T19:40:20.557Z,0.60
2022-12-09T19:43:43.535Z,0.70
2022-12-09T19:47:09.521Z,0.70
2022-12-09T19:50:32.533Z,0.70
2022-12-09T19:53:58.912Z,0.70
2022-12-09T19:57:22.355Z,0.80
2022-12-09T20:00:45.433Z,0.80
2022-12-09T20:04:46.452Z,0.70
2022-12-09T20:07:54.063Z,0.70
2022-12-09T20:11:21.132Z,0.60
2022-12-09T20:14:46.845Z,0.40
2022-12-09T20:18:10.728Z,0.20
2022-12-09T20:21:51.002Z,-0.10
2022-12-09T20:25:27.590Z,-0.20
2022-12-09T20:28:53.798Z,-0.30
2022-12-09T20:32:16.788Z,-0.40
2022-12-09T20:35:39.869Z,-0.60
2022-12-09T20:39:05.495Z,-0.50
2022-12-09T20:42:28.605Z,-0.50
2022-12-09T20:45:53.460Z,-0.50
2022-12-09T20:49:16.742Z,-0.70
2022-12-09T20:52:40.448Z,-0.80
2022-12-09T20:56:05.271Z,-0.90
2022-12-09T20:59:28.359Z,-1.00
2022-12-09T21:02:52.934Z,-1.00
2022-12-09T21:06:17.536Z,-0.90
2022-12-09T21:09:40.681Z,-0.80
2022-12-09T21:13:03.738Z,-0.70
2022-12-09T21:16:28.855Z,-0.60
2022-12-09T21:19:53.473Z,-0.50
2022-12-09T21:23:35.202Z,-0.30
2022-12-09T21:26:58.615Z,-0.10
2022-12-09T21:30:21.988Z,0.00
2022-12-09T21:33:46.435Z,0.00
2022-12-09T21:37:10.924Z,0.10
2022-12-09T21:40:34.315Z,0.10
2022-12-09T21:43:59.955Z,0.00
2022-12-09T21:47:25.598Z,-0.10
2022-12-09T21:50:55.405Z,-0.20
2022-12-09T21:54:22.723Z,-0.20
2022-12-09T21:57:46.225Z,-0.30
2022-12-09T22:01:10.921Z,-0.30
2022-12-09T22:04:37.217Z,-0.40
2022-12-09T22:08:00.479Z,-0.40
2022-12-09T22:11:26.758Z,-0.40
2022-12-09T22:14:49.795Z,-0.40
2022-12-09T22:18:13.530Z,-0.40
2022-12-09T22:21:37.079Z,-0.50
2022-12-09T22:25:00.275Z,-0.60
2022-12-09T22:28:24.743Z,-0.60
2022-12-09T22:31:48.297Z,-0.70
2022-12-09T22:35:12.236Z,-0.90
2022-12-09T22:38:36.412Z,-1.10
2022-12-09T22:41:59.659Z,-1.40
2022-12-09T22:45:24.186Z,-1.70
2022-12-09T22:48:47.293Z,-1.90
2022-12-09T22:52:10.484Z,-2.00
2022-12-09T22:55:33.516Z,-2.10
2022-12-09T22:58:56.536Z,-2.20
2022-12-09T23:02:22.764Z,-2.30
2022-12-09T23:05:45.887Z,-2.40
2022-12-09T23:09:15.116Z,-2.50
2022-12-09T23:12:38.195Z,-2.60
2022-12-09T23:16:01.977Z,-2.70
2022-12-09T23:19:26.391Z,-2.80
2022-12-09T23:22:49.397Z,-2.60
2022-12-09T23:26:14.122Z,-2.70
2022-12-09T23:29:37.092Z,-2.90
2022-12-09T23:33:00.092Z,-3.00
2022-12-09T23:36:26.942Z,-3.20
2022-12-09T23:39:49.964Z,-3.20
2022-12-09T23:43:12.907Z,-3.20
2022-12-09T23:46:35.950Z,-3.20
2022-12-09T23:49:58.892Z,-0.80
2022-12-09T23:53:23.647Z,-0.70
2022-12-09T23:56:49.887Z,-0.70
